65IS weather

Frings Airport
Leeds, Illinois, United States

Public forecast

Using degrees Fahrenheit for public forecast. Weather courtesy of forecast.io.

METAR (pilot weather report)

Closest report is Pontiac Municipal Airport, 17.4 nm (32.2 km) ESE. Retrieved 2019/08/26 08:35 UTC (0 seconds ago):

KPNT 260835Z AUTO 00000KT 10SM -RA SCT015 BKN034 OVC080 19/18 A2985 RMK AO2 LTG DSNT S AND SW T01900183

TAF (pilot weather forecast)

Closest forecast is Central Illinois Regional Airport at Bloomington-Normal, 33.0 nm (61.1 km) S. Retrieved 2019/08/26 06:22 UTC (2 hours ago):

TAF KBMI 260520Z 2606/2706 10007KT P6SM VCSH OVC035 FM261000 15009KT 5SM TSRA BR OVC008CB FM261800 20012KT P6SM VCSH OVC012 FM262100 18011KT P6SM BKN035 FM270300 18014KT P6SM VCTS OVC018CB